Nearby METAR Reports

 

EGWC - Cosford Raf, United Kingdom
Distance from station: SSW 22km
Updated: 25/11/2020 15:50
NOT Current
Few Clouds
Few Clouds
 Wind from WNW
Wind: WNW 1 mph , 2 km/h
Temperature: 7°C
Dew Point: 5°C
Humidity: 87%
Barometer: 1015 hPa
Clouds: Few Clouds
Visibility: 6 miles , 10 km
Cloud details: Few Clouds 671 m
2020/11/25 15:50 EGWC 251550Z 29001KT 9999 FEW022 07/05 Q1015 RMK BLU
EGOS - Shawbury Raf, United Kingdom
Distance from station: W 37km
Updated: 27/11/2020 02:50
NOT Current
Fog, Overcast
Fog, Overcast
 Wind from calm
Wind: Calm
Temperature: 2°C
Dew Point: 2°C
Humidity: 100%
Barometer: 1021 hPa
Summary: Fog
Clouds: Overcast
Visibility: 1 mile , 1 km
Cloud details: Few Clouds 30 m
Overcast 1402 m
2020/11/27 02:50 EGOS 270250Z AUTO 00000KT 1200 FG FEW001/// OVC046/// 02/02 Q1021
 
EGBB - Birmingham Airpo, United Kingdom
Distance from station: SE 44km
Updated: 27/11/2020 03:20
NOT Current
Mist, Mostly cloudy
Mist, Mostly cloudy
 Wind from ESE
Wind: ESE 1 mph , 2 km/h
Temperature: 1°C
Dew Point: 1°C
Humidity: 100%
Barometer: 1021 hPa
Summary: Mist
Clouds: Mostly cloudy
Visibility: 3 miles , 5 km
Cloud details: Mostly cloudy 1341 m
2020/11/27 03:20 EGBB 270320Z 11001KT 4500 BR BKN044 01/01 Q1021
EGNX - East Midlands, United Kingdom
Distance from station: E 54km
Updated: 27/11/2020 03:20
NOT Current
Mostly cloudy
Mostly cloudy
 Wind from varies
Wind: varies 2 mph , 4 km/h
Temperature: 4°C
Dew Point: 3°C
Humidity: 93%
Barometer: 1021 hPa
Clouds: Mostly cloudy
Visibility: 6 miles , 9 km
Cloud details: Mostly cloudy 1280 m
2020/11/27 03:20 EGNX 270320Z VRB02KT 9000 BKN042 04/03 Q1021
 
EGCC - Manchester Intl, United Kingdom
Distance from station: N 63km
Updated: 27/11/2020 03:20
NOT Current
Overcast
Overcast
 Wind from ESE
Wind: ESE 2 mph , 4 km/h
Temperature: 4°C
Dew Point: 3°C
Humidity: 93%
Barometer: 1021 hPa
Clouds: Overcast
Visibility: 6 miles , 10 km
Cloud details: Overcast 1341 m
2020/11/27 03:20 EGCC 270320Z AUTO 11002KT 9999 OVC044 04/03 Q1021 TEMPO 9000
EGBE - Coventry Airport, United Kingdom
Distance from station: SE 65km
Updated: 18/07/2017 14:50
NOT Current
Clear
Clear
 Wind from E
Wind: E 16 mph , 26 km/h
Temperature: 27°C
Heat Index: 27°C
Dew Point: 14°C
Humidity: 45%
Barometer: 1015 hPa
Summary: Clear
Visibility: greater than 7 miles , 10 km
2017/07/18 13:50 EGBE 181350Z 10014KT 060V120 CAVOK 27/14 Q1015
 
EGNR - Hawarden (aut), United Kingdom
Distance from station: NW 70km
Updated: 26/11/2020 19:20
NOT Current
Mostly cloudy
Mostly cloudy
 Wind from SSW
Wind: SSW 2 mph , 4 km/h
Temperature: 5°C
Dew Point: 4°C
Humidity: 93%
Barometer: 1022 hPa
Clouds: Mostly cloudy
Visibility: 6 miles , 10 km
Cloud details: Few Clouds 396 m
Partly cloudy 823 m
Mostly cloudy 1311 m
2020/11/26 19:20 EGNR 261920Z 20002KT 9999 FEW013 SCT027 BKN043 05/04 Q1022
EGGP - Liverpool Airpor, United Kingdom
Distance from station: NW 76km
Updated: 27/11/2020 03:20
NOT Current
Fog, Overcast
Fog, Overcast
 Wind from varies
Wind: varies 2 mph , 4 km/h
Temperature: 6°C
Dew Point: 6°C
Humidity: 100%
Barometer: 1021 hPa
Summary: Fog
Clouds: Overcast
Visibility: 0 mile , 0 km
Cloud details: Overcast 0 m
2020/11/27 03:20 EGGP 270320Z AUTO VRB02KT 0200 FG OVC000/// 06/06 Q1021